sensor_id;sensor_type;location;lat;lon;timestamp;pressure;altitude;pressure_sealevel;temperature;humidity
29385;BME280;16367;48.736;9.218;2023-01-24T00:00:37;-23218.53;;;1.59;100.00
29385;BME280;16367;48.736;9.218;2023-01-24T00:02:40;-23219.31;;;1.61;100.00
29385;BME280;16367;48.736;9.218;2023-01-24T00:04:42;-23218.38;;;1.58;100.00
29385;BME280;16367;48.736;9.218;2023-01-24T00:06:46;-23217.41;;;1.55;100.00
29385;BME280;16367;48.736;9.218;2023-01-24T00:08:49;-23218.69;;;1.59;100.00
29385;BME280;16367;48.736;9.218;2023-01-24T00:10:58;-23219.16;;;1.61;100.00
29385;BME280;16367;48.736;9.218;2023-01-24T00:13:01;-23216.44;;;1.52;100.00
29385;BME280;16367;48.736;9.218;2023-01-24T00:15:06;-23214.84;;;1.47;100.00
29385;BME280;16367;48.736;9.218;2023-01-24T00:17:09;-23217.56;;;1.56;100.00
29385;BME280;16367;48.736;9.218;2023-01-24T00:19:12;-23218.38;;;1.58;100.00
29385;BME280;16367;48.736;9.218;2023-01-24T00:21:16;-23218.69;;;1.59;100.00
29385;BME280;16367;48.736;9.218;2023-01-24T00:23:20;-23215.19;;;1.48;100.00
29385;BME280;16367;48.736;9.218;2023-01-24T00:25:23;-23216.78;;;1.53;100.00
29385;BME280;16367;48.736;9.218;2023-01-24T00:27:26;-23218.69;;;1.59;100.00
29385;BME280;16367;48.736;9.218;2023-01-24T00:29:28;-23219.66;;;1.62;100.00
29385;BME280;16367;48.736;9.218;2023-01-24T00:31:31;-23217.88;;;1.57;100.00
29385;BME280;16367;48.736;9.218;2023-01-24T00:33:34;-23218.84;;;1.60;100.00
29385;BME280;16367;48.736;9.218;2023-01-24T00:35:37;-23221.25;;;1.67;100.00
29385;BME280;16367;48.736;9.218;2023-01-24T00:37:39;-23216.44;;;1.52;100.00
29385;BME280;16367;48.736;9.218;2023-01-24T00:39:44;-23215.66;;;1.49;100.00
29385;BME280;16367;48.736;9.218;2023-01-24T00:41:46;-23216.78;;;1.53;100.00
29385;BME280;16367;48.736;9.218;2023-01-24T00:43:49;-23219.81;;;1.63;100.00
29385;BME280;16367;48.736;9.218;2023-01-24T00:45:52;-23217.56;;;1.56;100.00
29385;BME280;16367;48.736;9.218;2023-01-24T00:47:54;-23218.06;;;1.57;100.00
29385;BME280;16367;48.736;9.218;2023-01-24T00:49:57;-23216.94;;;1.54;100.00
29385;BME280;16367;48.736;9.218;2023-01-24T00:52:00;-23219.31;;;1.61;100.00
29385;BME280;16367;48.736;9.218;2023-01-24T00:54:03;-23218.69;;;1.59;100.00
29385;BME280;16367;48.736;9.218;2023-01-24T00:56:08;-23216.44;;;1.52;100.00
29385;BME280;16367;48.736;9.218;2023-01-24T00:58:11;-23215.19;;;1.48;100.00
29385;BME280;16367;48.736;9.218;2023-01-24T01:00:15;-23216.44;;;1.52;100.00
29385;BME280;16367;48.736;9.218;2023-01-24T01:02:18;-23215.97;;;1.50;100.00
29385;BME280;16367;48.736;9.218;2023-01-24T01:04:21;-23216.13;;;1.51;100.00
29385;BME280;16367;48.736;9.218;2023-01-24T01:06:24;-23215.19;;;1.48;100.00
29385;BME280;16367;48.736;9.218;2023-01-24T01:08:27;-23215.81;;;1.50;100.00
29385;BME280;16367;48.736;9.218;2023-01-24T01:10:29;-23215.19;;;1.48;100.00
29385;BME280;16367;48.736;9.218;2023-01-24T01:12:34;-23214.84;;;1.47;100.00
29385;BME280;16367;48.736;9.218;2023-01-24T01:14:36;-23216.78;;;1.53;100.00
29385;BME280;16367;48.736;9.218;2023-01-24T01:16:39;-23217.72;;;1.56;100.00
29385;BME280;16367;48.736;9.218;2023-01-24T01:18:42;-23215.50;;;1.49;100.00
29385;BME280;16367;48.736;9.218;2023-01-24T01:20:49;-23218.38;;;1.58;100.00
29385;BME280;16367;48.736;9.218;2023-01-24T01:22:52;-23220.59;;;1.65;100.00
29385;BME280;16367;48.736;9.218;2023-01-24T01:24:54;-23218.84;;;1.60;100.00
29385;BME280;16367;48.736;9.218;2023-01-24T01:26:57;-23220.59;;;1.65;100.00
29385;BME280;16367;48.736;9.218;2023-01-24T01:29:02;-23216.13;;;1.51;100.00
29385;BME280;16367;48.736;9.218;2023-01-24T01:31:04;-23220.59;;;1.65;100.00
29385;BME280;16367;48.736;9.218;2023-01-24T01:33:07;-23216.44;;;1.52;100.00
29385;BME280;16367;48.736;9.218;2023-01-24T01:35:10;-23220.75;;;1.66;100.00
29385;BME280;16367;48.736;9.218;2023-01-24T01:37:13;-23214.06;;;1.44;100.00
29385;BME280;16367;48.736;9.218;2023-01-24T01:39:15;-23214.84;;;1.47;100.00
29385;BME280;16367;48.736;9.218;2023-01-24T01:41:18;-23217.09;;;1.54;100.00
29385;BME280;16367;48.736;9.218;2023-01-24T01:43:22;-23220.28;;;1.64;100.00
29385;BME280;16367;48.736;9.218;2023-01-24T01:45:45;-23217.88;;;1.57;100.00
29385;BME280;16367;48.736;9.218;2023-01-24T01:47:49;-23216.44;;;1.52;100.00
29385;BME280;16367;48.736;9.218;2023-01-24T01:49:56;-23218.22;;;1.58;100.00
29385;BME280;16367;48.736;9.218;2023-01-24T01:52:05;-23219.81;;;1.63;100.00
29385;BME280;16367;48.736;9.218;2023-01-24T01:54:12;-23218.06;;;1.57;100.00
29385;BME280;16367;48.736;9.218;2023-01-24T01:56:22;-23218.84;;;1.60;100.00
29385;BME280;16367;48.736;9.218;2023-01-24T01:58:27;-23218.53;;;1.59;100.00
29385;BME280;16367;48.736;9.218;2023-01-24T02:00:30;-23218.69;;;1.59;100.00
29385;BME280;16367;48.736;9.218;2023-01-24T02:02:35;-23216.44;;;1.52;100.00
29385;BME280;16367;48.736;9.218;2023-01-24T02:04:43;-23216.78;;;1.53;100.00
29385;BME280;16367;48.736;9.218;2023-01-24T02:06:52;-23217.41;;;1.55;100.00
29385;BME280;16367;48.736;9.218;2023-01-24T02:08:57;-23219.00;;;1.60;100.00
29385;BME280;16367;48.736;9.218;2023-01-24T02:11:01;-23218.38;;;1.58;100.00
29385;BME280;16367;48.736;9.218;2023-01-24T02:13:21;-23217.41;;;1.55;100.00
29385;BME280;16367;48.736;9.218;2023-01-24T02:15:24;-23218.69;;;1.59;100.00
29385;BME280;16367;48.736;9.218;2023-01-24T02:17:46;-23214.38;;;1.45;100.00
29385;BME280;16367;48.736;9.218;2023-01-24T02:20:00;-23218.69;;;1.59;100.00
29385;BME280;16367;48.736;9.218;2023-01-24T02:22:13;-23215.81;;;1.50;100.00
29385;BME280;16367;48.736;9.218;2023-01-24T02:24:21;-23215.81;;;1.50;100.00
29385;BME280;16367;48.736;9.218;2023-01-24T02:26:29;-23218.69;;;1.59;100.00
29385;BME280;16367;48.736;9.218;2023-01-24T02:28:32;-23217.09;;;1.54;100.00
29385;BME280;16367;48.736;9.218;2023-01-24T02:30:36;-23216.13;;;1.51;100.00
29385;BME280;16367;48.736;9.218;2023-01-24T02:32:39;-23216.78;;;1.53;100.00
29385;BME280;16367;48.736;9.218;2023-01-24T02:34:42;-23214.84;;;1.47;100.00
29385;BME280;16367;48.736;9.218;2023-01-24T02:36:45;-23215.00;;;1.47;100.00
29385;BME280;16367;48.736;9.218;2023-01-24T02:38:52;-23213.56;;;1.43;100.00
29385;BME280;16367;48.736;9.218;2023-01-24T02:40:58;-23212.94;;;1.41;100.00
29385;BME280;16367;48.736;9.218;2023-01-24T02:43:09;-23213.56;;;1.43;100.00
29385;BME280;16367;48.736;9.218;2023-01-24T02:45:16;-23219.00;;;1.60;100.00
29385;BME280;16367;48.736;9.218;2023-01-24T02:47:21;-23213.09;;;1.41;100.00
29385;BME280;16367;48.736;9.218;2023-01-24T02:49:24;-23215.50;;;1.49;100.00
29385;BME280;16367;48.736;9.218;2023-01-24T02:51:26;-23217.41;;;1.55;100.00
29385;BME280;16367;48.736;9.218;2023-01-24T02:53:47;-23215.66;;;1.49;100.00
29385;BME280;16367;48.736;9.218;2023-01-24T02:55:49;-23215.00;;;1.47;100.00
29385;BME280;16367;48.736;9.218;2023-01-24T02:58:06;-23216.78;;;1.53;100.00
29385;BME280;16367;48.736;9.218;2023-01-24T03:00:11;-23214.53;;;1.46;100.00
29385;BME280;16367;48.736;9.218;2023-01-24T03:02:13;-23213.91;;;1.44;100.00
29385;BME280;16367;48.736;9.218;2023-01-24T03:04:16;-23213.91;;;1.44;100.00
29385;BME280;16367;48.736;9.218;2023-01-24T03:06:19;-23216.28;;;1.51;100.00
29385;BME280;16367;48.736;9.218;2023-01-24T03:08:23;-23214.22;;;1.45;100.00
29385;BME280;16367;48.736;9.218;2023-01-24T03:10:26;-23216.13;;;1.51;100.00
29385;BME280;16367;48.736;9.218;2023-01-24T03:12:28;-23213.09;;;1.41;100.00
29385;BME280;16367;48.736;9.218;2023-01-24T03:14:49;-23212.78;;;1.40;100.00
29385;BME280;16367;48.736;9.218;2023-01-24T03:17:11;-23213.09;;;1.41;100.00
29385;BME280;16367;48.736;9.218;2023-01-24T03:19:30;-23211.50;;;1.36;100.00
29385;BME280;16367;48.736;9.218;2023-01-24T03:21:51;-23212.94;;;1.41;100.00
29385;BME280;16367;48.736;9.218;2023-01-24T03:24:11;-23212.94;;;1.41;100.00
29385;BME280;16367;48.736;9.218;2023-01-24T03:26:31;-23213.25;;;1.42;100.00
29385;BME280;16367;48.736;9.218;2023-01-24T03:28:52;-23213.41;;;1.42;100.00
29385;BME280;16367;48.736;9.218;2023-01-24T03:31:12;-23212.13;;;1.38;100.00
29385;BME280;16367;48.736;9.218;2023-01-24T03:33:34;-23210.22;;;1.32;100.00
29385;BME280;16367;48.736;9.218;2023-01-24T03:35:54;-23214.53;;;1.46;100.00
29385;BME280;16367;48.736;9.218;2023-01-24T03:37:59;-23213.56;;;1.43;100.00
29385;BME280;16367;48.736;9.218;2023-01-24T03:40:20;-23214.22;;;1.45;100.00
29385;BME280;16367;48.736;9.218;2023-01-24T03:42:23;-23212.31;;;1.39;100.00
29385;BME280;16367;48.736;9.218;2023-01-24T03:44:26;-23212.63;;;1.40;100.00
29385;BME280;16367;48.736;9.218;2023-01-24T03:46:31;-23213.09;;;1.41;100.00
29385;BME280;16367;48.736;9.218;2023-01-24T03:48:35;-23211.03;;;1.35;100.00
29385;BME280;16367;48.736;9.218;2023-01-24T03:50:39;-23212.94;;;1.41;100.00
29385;BME280;16367;48.736;9.218;2023-01-24T03:53:04;-23211.81;;;1.37;100.00
29385;BME280;16367;48.736;9.218;2023-01-24T03:55:06;-23211.50;;;1.36;100.00
29385;BME280;16367;48.736;9.218;2023-01-24T03:57:09;-23212.94;;;1.41;100.00
29385;BME280;16367;48.736;9.218;2023-01-24T03:59:12;-23212.31;;;1.39;100.00
29385;BME280;16367;48.736;9.218;2023-01-24T04:01:15;-23215.34;;;1.48;100.00
29385;BME280;16367;48.736;9.218;2023-01-24T04:03:18;-23212.00;;;1.38;100.00
29385;BME280;16367;48.736;9.218;2023-01-24T04:05:22;-23212.94;;;1.41;100.00
29385;BME280;16367;48.736;9.218;2023-01-24T04:07:26;-23214.22;;;1.45;100.00
29385;BME280;16367;48.736;9.218;2023-01-24T04:09:28;-23213.75;;;1.43;100.00
29385;BME280;16367;48.736;9.218;2023-01-24T04:11:31;-23212.00;;;1.38;100.00
29385;BME280;16367;48.736;9.218;2023-01-24T04:13:34;-23210.69;;;1.34;100.00
29385;BME280;16367;48.736;9.218;2023-01-24T04:15:38;-23211.66;;;1.37;100.00
29385;BME280;16367;48.736;9.218;2023-01-24T04:17:40;-23215.50;;;1.49;100.00
29385;BME280;16367;48.736;9.218;2023-01-24T04:19:43;-23211.50;;;1.36;100.00
29385;BME280;16367;48.736;9.218;2023-01-24T04:21:47;-23214.69;;;1.46;100.00
29385;BME280;16367;48.736;9.218;2023-01-24T04:23:50;-23214.06;;;1.44;100.00
29385;BME280;16367;48.736;9.218;2023-01-24T04:25:53;-23216.44;;;1.52;100.00
29385;BME280;16367;48.736;9.218;2023-01-24T04:27:59;-23214.22;;;1.45;100.00
29385;BME280;16367;48.736;9.218;2023-01-24T04:30:03;-23214.06;;;1.44;100.00
29385;BME280;16367;48.736;9.218;2023-01-24T04:32:06;-23219.50;;;1.62;100.00
29385;BME280;16367;48.736;9.218;2023-01-24T04:34:09;-23213.56;;;1.43;100.00
29385;BME280;16367;48.736;9.218;2023-01-24T04:36:12;-23215.00;;;1.47;100.00
29385;BME280;16367;48.736;9.218;2023-01-24T04:38:16;-23218.69;;;1.59;100.00
29385;BME280;16367;48.736;9.218;2023-01-24T04:40:19;-23213.09;;;1.41;100.00
29385;BME280;16367;48.736;9.218;2023-01-24T04:42:22;-23213.56;;;1.43;100.00
29385;BME280;16367;48.736;9.218;2023-01-24T04:44:24;-23215.50;;;1.49;100.00
29385;BME280;16367;48.736;9.218;2023-01-24T04:46:27;-23213.91;;;1.44;100.00
29385;BME280;16367;48.736;9.218;2023-01-24T04:48:30;-23215.81;;;1.50;100.00
29385;BME280;16367;48.736;9.218;2023-01-24T04:50:32;-23214.84;;;1.47;100.00
29385;BME280;16367;48.736;9.218;2023-01-24T04:52:35;-23214.53;;;1.46;100.00
29385;BME280;16367;48.736;9.218;2023-01-24T04:54:39;-23214.53;;;1.46;100.00
29385;BME280;16367;48.736;9.218;2023-01-24T04:56:42;-23216.13;;;1.51;100.00
29385;BME280;16367;48.736;9.218;2023-01-24T04:58:45;-23213.75;;;1.43;100.00
29385;BME280;16367;48.736;9.218;2023-01-24T05:00:48;-23212.00;;;1.38;100.00
29385;BME280;16367;48.736;9.218;2023-01-24T05:02:51;-23216.78;;;1.53;100.00
29385;BME280;16367;48.736;9.218;2023-01-24T05:04:54;-23211.34;;;1.36;100.00
29385;BME280;16367;48.736;9.218;2023-01-24T05:06:56;-23213.41;;;1.42;100.00
29385;BME280;16367;48.736;9.218;2023-01-24T05:08:59;-23214.22;;;1.45;100.00
29385;BME280;16367;48.736;9.218;2023-01-24T05:11:04;-23214.53;;;1.46;100.00
29385;BME280;16367;48.736;9.218;2023-01-24T05:13:07;-23215.81;;;1.50;100.00
29385;BME280;16367;48.736;9.218;2023-01-24T05:15:10;-23214.22;;;1.45;100.00
29385;BME280;16367;48.736;9.218;2023-01-24T05:17:12;-23214.53;;;1.46;100.00
29385;BME280;16367;48.736;9.218;2023-01-24T05:19:15;-23215.19;;;1.48;100.00
29385;BME280;16367;48.736;9.218;2023-01-24T05:21:18;-23212.94;;;1.41;100.00
29385;BME280;16367;48.736;9.218;2023-01-24T05:23:21;-23214.69;;;1.46;100.00
29385;BME280;16367;48.736;9.218;2023-01-24T05:25:24;-23216.28;;;1.51;100.00
29385;BME280;16367;48.736;9.218;2023-01-24T05:27:28;-23216.28;;;1.51;100.00
29385;BME280;16367;48.736;9.218;2023-01-24T05:29:31;-23214.22;;;1.45;100.00
29385;BME280;16367;48.736;9.218;2023-01-24T05:31:34;-23214.69;;;1.46;100.00
29385;BME280;16367;48.736;9.218;2023-01-24T05:33:36;-23214.06;;;1.44;100.00
29385;BME280;16367;48.736;9.218;2023-01-24T05:35:39;-23214.84;;;1.47;100.00
29385;BME280;16367;48.736;9.218;2023-01-24T05:37:42;-23212.31;;;1.39;100.00
29385;BME280;16367;48.736;9.218;2023-01-24T05:39:44;-23213.91;;;1.44;100.00
29385;BME280;16367;48.736;9.218;2023-01-24T05:41:47;-23213.91;;;1.44;100.00
29385;BME280;16367;48.736;9.218;2023-01-24T05:43:51;-23215.50;;;1.49;100.00
29385;BME280;16367;48.736;9.218;2023-01-24T05:45:57;-23216.78;;;1.53;100.00
29385;BME280;16367;48.736;9.218;2023-01-24T05:48:00;-23217.09;;;1.54;100.00
29385;BME280;16367;48.736;9.218;2023-01-24T05:50:03;-23216.13;;;1.51;100.00
29385;BME280;16367;48.736;9.218;2023-01-24T05:52:06;-23216.44;;;1.52;100.00
29385;BME280;16367;48.736;9.218;2023-01-24T05:54:08;-23214.38;;;1.45;100.00
29385;BME280;16367;48.736;9.218;2023-01-24T05:56:13;-23214.38;;;1.45;100.00
29385;BME280;16367;48.736;9.218;2023-01-24T05:58:15;-23217.25;;;1.55;100.00
29385;BME280;16367;48.736;9.218;2023-01-24T06:00:20;-23218.69;;;1.59;100.00
29385;BME280;16367;48.736;9.218;2023-01-24T06:02:23;-23220.59;;;1.65;100.00
29385;BME280;16367;48.736;9.218;2023-01-24T06:04:26;-23219.00;;;1.60;100.00
29385;BME280;16367;48.736;9.218;2023-01-24T06:06:28;-23215.66;;;1.49;100.00
29385;BME280;16367;48.736;9.218;2023-01-24T06:08:31;-23213.56;;;1.43;100.00
29385;BME280;16367;48.736;9.218;2023-01-24T06:10:34;-23214.69;;;1.46;100.00
29385;BME280;16367;48.736;9.218;2023-01-24T06:12:36;-23214.22;;;1.45;100.00
29385;BME280;16367;48.736;9.218;2023-01-24T06:14:39;-23215.34;;;1.48;100.00
29385;BME280;16367;48.736;9.218;2023-01-24T06:16:44;-23216.94;;;1.54;100.00
29385;BME280;16367;48.736;9.218;2023-01-24T06:18:48;-23214.84;;;1.47;100.00
29385;BME280;16367;48.736;9.218;2023-01-24T06:20:51;-23214.22;;;1.45;100.00
29385;BME280;16367;48.736;9.218;2023-01-24T06:22:56;-23215.19;;;1.48;100.00
29385;BME280;16367;48.736;9.218;2023-01-24T06:25:01;-23218.38;;;1.58;100.00
29385;BME280;16367;48.736;9.218;2023-01-24T06:27:05;-23214.84;;;1.47;100.00
29385;BME280;16367;48.736;9.218;2023-01-24T06:29:09;-23214.84;;;1.47;100.00
29385;BME280;16367;48.736;9.218;2023-01-24T06:31:21;-23219.31;;;1.61;100.00
29385;BME280;16367;48.736;9.218;2023-01-24T06:33:35;-23215.19;;;1.48;100.00
29385;BME280;16367;48.736;9.218;2023-01-24T06:35:49;-23215.66;;;1.49;100.00
29385;BME280;16367;48.736;9.218;2023-01-24T06:37:54;-23213.56;;;1.43;100.00
29385;BME280;16367;48.736;9.218;2023-01-24T06:39:57;-23212.94;;;1.41;100.00
29385;BME280;16367;48.736;9.218;2023-01-24T06:42:00;-23212.00;;;1.38;100.00
29385;BME280;16367;48.736;9.218;2023-01-24T06:44:03;-23213.75;;;1.43;100.00
29385;BME280;16367;48.736;9.218;2023-01-24T06:46:07;-23212.13;;;1.38;100.00
29385;BME280;16367;48.736;9.218;2023-01-24T06:48:10;-23214.22;;;1.45;100.00
29385;BME280;16367;48.736;9.218;2023-01-24T06:50:17;-23211.81;;;1.37;100.00
29385;BME280;16367;48.736;9.218;2023-01-24T06:52:21;-23212.31;;;1.39;100.00
29385;BME280;16367;48.736;9.218;2023-01-24T06:54:23;-23212.63;;;1.40;100.00
29385;BME280;16367;48.736;9.218;2023-01-24T06:56:26;-23212.63;;;1.40;100.00
29385;BME280;16367;48.736;9.218;2023-01-24T06:58:29;-23212.47;;;1.39;100.00
29385;BME280;16367;48.736;9.218;2023-01-24T07:00:31;-23215.34;;;1.48;100.00
29385;BME280;16367;48.736;9.218;2023-01-24T07:02:34;-23212.78;;;1.40;100.00
29385;BME280;16367;48.736;9.218;2023-01-24T07:04:37;-23212.78;;;1.40;100.00
29385;BME280;16367;48.736;9.218;2023-01-24T07:06:41;-23211.03;;;1.35;100.00
29385;BME280;16367;48.736;9.218;2023-01-24T07:08:43;-23211.34;;;1.36;100.00
29385;BME280;16367;48.736;9.218;2023-01-24T07:10:46;-23212.47;;;1.39;100.00
29385;BME280;16367;48.736;9.218;2023-01-24T07:12:49;-23210.56;;;1.33;100.00
29385;BME280;16367;48.736;9.218;2023-01-24T07:14:52;-23212.47;;;1.39;100.00
29385;BME280;16367;48.736;9.218;2023-01-24T07:16:55;-23213.25;;;1.42;100.00
29385;BME280;16367;48.736;9.218;2023-01-24T07:18:58;-23213.09;;;1.41;100.00
29385;BME280;16367;48.736;9.218;2023-01-24T07:21:04;-23212.94;;;1.41;100.00
29385;BME280;16367;48.736;9.218;2023-01-24T07:23:19;-23212.13;;;1.38;100.00
29385;BME280;16367;48.736;9.218;2023-01-24T07:25:23;-23211.34;;;1.36;100.00
29385;BME280;16367;48.736;9.218;2023-01-24T07:27:26;-23214.38;;;1.45;100.00
29385;BME280;16367;48.736;9.218;2023-01-24T07:29:29;-23214.84;;;1.47;100.00
29385;BME280;16367;48.736;9.218;2023-01-24T07:31:32;-23215.19;;;1.48;100.00
29385;BME280;16367;48.736;9.218;2023-01-24T07:33:35;-23212.94;;;1.41;100.00
29385;BME280;16367;48.736;9.218;2023-01-24T07:35:37;-23213.75;;;1.43;100.00
29385;BME280;16367;48.736;9.218;2023-01-24T07:37:40;-23215.19;;;1.48;100.00
29385;BME280;16367;48.736;9.218;2023-01-24T07:39:44;-23212.47;;;1.39;100.00
29385;BME280;16367;48.736;9.218;2023-01-24T07:41:47;-23212.94;;;1.41;100.00
29385;BME280;16367;48.736;9.218;2023-01-24T07:43:51;-23218.22;;;1.58;100.00
29385;BME280;16367;48.736;9.218;2023-01-24T07:45:54;-23215.50;;;1.49;100.00
29385;BME280;16367;48.736;9.218;2023-01-24T07:47:58;-23215.19;;;1.48;100.00
29385;BME280;16367;48.736;9.218;2023-01-24T07:50:01;-23218.38;;;1.58;100.00
29385;BME280;16367;48.736;9.218;2023-01-24T07:52:04;-23215.50;;;1.49;100.00
29385;BME280;16367;48.736;9.218;2023-01-24T07:54:07;-23217.09;;;1.54;100.00
29385;BME280;16367;48.736;9.218;2023-01-24T07:56:12;-23214.22;;;1.45;100.00
29385;BME280;16367;48.736;9.218;2023-01-24T07:58:26;-23214.22;;;1.45;100.00
29385;BME280;16367;48.736;9.218;2023-01-24T08:00:29;-23215.19;;;1.48;100.00
29385;BME280;16367;48.736;9.218;2023-01-24T08:02:32;-23217.09;;;1.54;100.00
29385;BME280;16367;48.736;9.218;2023-01-24T08:04:34;-23215.50;;;1.49;100.00
29385;BME280;16367;48.736;9.218;2023-01-24T08:06:38;-23214.22;;;1.45;100.00
29385;BME280;16367;48.736;9.218;2023-01-24T08:09:00;-23217.41;;;1.55;100.00
29385;BME280;16367;48.736;9.218;2023-01-24T08:11:03;-23217.09;;;1.54;100.00
29385;BME280;16367;48.736;9.218;2023-01-24T08:13:07;-23215.00;;;1.47;100.00
29385;BME280;16367;48.736;9.218;2023-01-24T08:15:10;-23214.84;;;1.47;100.00
29385;BME280;16367;48.736;9.218;2023-01-24T08:17:13;-23214.53;;;1.46;100.00
29385;BME280;16367;48.736;9.218;2023-01-24T08:19:16;-23216.78;;;1.53;100.00
29385;BME280;16367;48.736;9.218;2023-01-24T08:21:38;-23216.94;;;1.54;100.00
29385;BME280;16367;48.736;9.218;2023-01-24T08:23:41;-23216.13;;;1.51;100.00
29385;BME280;16367;48.736;9.218;2023-01-24T08:25:44;-23216.78;;;1.53;100.00
29385;BME280;16367;48.736;9.218;2023-01-24T08:27:46;-23215.50;;;1.49;100.00
29385;BME280;16367;48.736;9.218;2023-01-24T08:29:51;-23218.06;;;1.57;100.00
29385;BME280;16367;48.736;9.218;2023-01-24T08:31:54;-23218.84;;;1.60;100.00
29385;BME280;16367;48.736;9.218;2023-01-24T08:33:56;-23221.56;;;1.68;100.00
29385;BME280;16367;48.736;9.218;2023-01-24T08:35:59;-23218.53;;;1.59;100.00
29385;BME280;16367;48.736;9.218;2023-01-24T08:38:02;-23222.19;;;1.70;100.00
29385;BME280;16367;48.736;9.218;2023-01-24T08:40:06;-23222.34;;;1.71;100.00
29385;BME280;16367;48.736;9.218;2023-01-24T08:42:10;-23222.19;;;1.70;100.00
29385;BME280;16367;48.736;9.218;2023-01-24T08:44:13;-23219.31;;;1.61;100.00
29385;BME280;16367;48.736;9.218;2023-01-24T08:46:20;-23224.75;;;1.78;100.00
29385;BME280;16367;48.736;9.218;2023-01-24T08:48:23;-23222.50;;;1.71;100.00
29385;BME280;16367;48.736;9.218;2023-01-24T08:50:26;-23230.81;;;1.97;100.00
29385;BME280;16367;48.736;9.218;2023-01-24T08:52:29;-23226.81;;;1.85;100.00
29385;BME280;16367;48.736;9.218;2023-01-24T08:54:32;-23225.38;;;1.80;100.00
29385;BME280;16367;48.736;9.218;2023-01-24T08:56:37;-23226.34;;;1.83;100.00
29385;BME280;16367;48.736;9.218;2023-01-24T08:58:39;-23230.97;;;1.98;100.00
29385;BME280;16367;48.736;9.218;2023-01-24T09:00:42;-23225.06;;;1.79;100.00
29385;BME280;16367;48.736;9.218;2023-01-24T09:02:46;-23224.75;;;1.78;100.00
29385;BME280;16367;48.736;9.218;2023-01-24T09:04:49;-23228.75;;;1.91;100.00
29385;BME280;16367;48.736;9.218;2023-01-24T09:06:52;-23224.44;;;1.77;100.00
29385;BME280;16367;48.736;9.218;2023-01-24T09:08:55;-23223.78;;;1.75;100.00
29385;BME280;16367;48.736;9.218;2023-01-24T09:10:57;-23224.59;;;1.78;100.00
29385;BME280;16367;48.736;9.218;2023-01-24T09:13:01;-23224.91;;;1.79;100.00
29385;BME280;16367;48.736;9.218;2023-01-24T09:15:05;-23229.06;;;1.92;100.00
29385;BME280;16367;48.736;9.218;2023-01-24T09:17:08;-23228.25;;;1.89;100.00
29385;BME280;16367;48.736;9.218;2023-01-24T09:19:12;-23228.91;;;1.91;100.00
29385;BME280;16367;48.736;9.218;2023-01-24T09:21:15;-23230.19;;;1.95;100.00
29385;BME280;16367;48.736;9.218;2023-01-24T09:23:18;-23231.47;;;1.99;100.00
29385;BME280;16367;48.736;9.218;2023-01-24T09:25:20;-23228.25;;;1.89;100.00
29385;BME280;16367;48.736;9.218;2023-01-24T09:27:24;-23230.81;;;1.97;100.00
29385;BME280;16367;48.736;9.218;2023-01-24T09:29:26;-23230.81;;;1.97;100.00
29385;BME280;16367;48.736;9.218;2023-01-24T09:31:29;-23233.03;;;2.04;100.00
29385;BME280;16367;48.736;9.218;2023-01-24T09:33:32;-23237.19;;;2.17;100.00
29385;BME280;16367;48.736;9.218;2023-01-24T09:35:36;-23234.47;;;2.09;100.00
29385;BME280;16367;48.736;9.218;2023-01-24T09:37:38;-23235.28;;;2.11;100.00
29385;BME280;16367;48.736;9.218;2023-01-24T09:39:43;-23231.78;;;2.00;100.00
29385;BME280;16367;48.736;9.218;2023-01-24T09:41:58;-23239.28;;;2.24;100.00
29385;BME280;16367;48.736;9.218;2023-01-24T09:44:17;-23237.50;;;2.18;100.00
29385;BME280;16367;48.736;9.218;2023-01-24T09:46:28;-23235.13;;;2.11;100.00
29385;BME280;16367;48.736;9.218;2023-01-24T09:48:33;-23233.84;;;2.07;100.00
29385;BME280;16367;48.736;9.218;2023-01-24T09:50:41;-23236.88;;;2.16;100.00
29385;BME280;16367;48.736;9.218;2023-01-24T09:52:47;-23235.75;;;2.13;100.00
29385;BME280;16367;48.736;9.218;2023-01-24T09:54:57;-23238.31;;;2.21;100.00
29385;BME280;16367;48.736;9.218;2023-01-24T09:57:07;-23235.59;;;2.12;100.00
29385;BME280;16367;48.736;9.218;2023-01-24T09:59:22;-23233.38;;;2.05;100.00
29385;BME280;16367;48.736;9.218;2023-01-24T10:01:25;-23232.25;;;2.02;100.00
29385;BME280;16367;48.736;9.218;2023-01-24T10:03:28;-23238.78;;;2.22;100.00
29385;BME280;16367;48.736;9.218;2023-01-24T10:05:34;-23236.56;;;2.15;100.00
29385;BME280;16367;48.736;9.218;2023-01-24T10:07:51;-23238.31;;;2.21;100.00
29385;BME280;16367;48.736;9.218;2023-01-24T10:10:06;-23237.50;;;2.18;100.00
29385;BME280;16367;48.736;9.218;2023-01-24T10:12:20;-23234.00;;;2.07;100.00
29385;BME280;16367;48.736;9.218;2023-01-24T10:14:42;-23236.25;;;2.14;100.00
29385;BME280;16367;48.736;9.218;2023-01-24T10:17:07;-23237.50;;;2.18;100.00
29385;BME280;16367;48.736;9.218;2023-01-24T10:19:25;-23234.97;;;2.10;100.00
29385;BME280;16367;48.736;9.218;2023-01-24T10:21:49;-23237.03;;;2.17;100.00
29385;BME280;16367;48.736;9.218;2023-01-24T10:24:01;-23233.38;;;2.05;100.00
29385;BME280;16367;48.736;9.218;2023-01-24T10:26:17;-23234.47;;;2.09;100.00
29385;BME280;16367;48.736;9.218;2023-01-24T10:28:23;-23233.84;;;2.07;100.00
29385;BME280;16367;48.736;9.218;2023-01-24T10:30:30;-23235.59;;;2.12;100.00
29385;BME280;16367;48.736;9.218;2023-01-24T10:32:39;-23240.56;;;2.28;100.00
29385;BME280;16367;48.736;9.218;2023-01-24T10:34:46;-23241.50;;;2.31;100.00
29385;BME280;16367;48.736;9.218;2023-01-24T10:36:51;-23240.22;;;2.27;100.00
29385;BME280;16367;48.736;9.218;2023-01-24T10:38:59;-23240.38;;;2.28;100.00
29385;BME280;16367;48.736;9.218;2023-01-24T10:41:14;-23238.63;;;2.22;100.00
29385;BME280;16367;48.736;9.218;2023-01-24T10:43:23;-23237.84;;;2.19;100.00
29385;BME280;16367;48.736;9.218;2023-01-24T10:45:35;-23237.84;;;2.19;100.00
29385;BME280;16367;48.736;9.218;2023-01-24T10:47:44;-23240.72;;;2.28;100.00
29385;BME280;16367;48.736;9.218;2023-01-24T10:49:51;-23242.63;;;2.35;100.00
29385;BME280;16367;48.736;9.218;2023-01-24T10:52:08;-23241.50;;;2.31;100.00
29385;BME280;16367;48.736;9.218;2023-01-24T10:54:19;-23238.16;;;2.20;100.00
29385;BME280;16367;48.736;9.218;2023-01-24T10:56:23;-23240.56;;;2.28;100.00